createdAt,value
2018-12-07T00:01:31.269Z,100714.84
2018-12-07T00:03:59.507Z,100716.47
2018-12-07T00:06:27.724Z,100716.02
2018-12-07T00:08:55.996Z,100710.45
2018-12-07T00:11:24.213Z,100710.00
2018-12-07T00:13:52.468Z,100709.83
2018-12-07T00:16:20.698Z,100710.31
2018-12-07T00:18:48.889Z,100707.41
2018-12-07T00:21:17.242Z,100711.19
2018-12-07T00:23:45.466Z,100704.02
2018-12-07T00:26:13.641Z,100705.56
2018-12-07T00:28:41.907Z,100700.03
2018-12-07T00:31:10.121Z,100697.96
2018-12-07T00:33:38.344Z,100704.25
2018-12-07T00:36:06.573Z,100702.97
2018-12-07T00:38:34.896Z,100706.70
2018-12-07T00:41:03.145Z,100708.86
2018-12-07T00:43:31.344Z,100704.07
2018-12-07T00:45:59.546Z,100706.53
2018-12-07T00:48:27.780Z,100700.95
2018-12-07T00:50:55.976Z,100706.05
2018-12-07T00:53:24.201Z,100704.77
2018-12-07T00:55:52.404Z,100705.48
2018-12-07T00:58:20.633Z,100694.00
2018-12-07T01:00:48.844Z,100707.06
2018-12-07T01:03:17.265Z,100706.53
2018-12-07T01:05:45.473Z,100704.73
2018-12-07T01:08:13.697Z,100696.68
2018-12-07T01:10:42.101Z,100715.23
2018-12-07T01:13:10.314Z,100707.63
2018-12-07T01:15:38.549Z,100708.55
2018-12-07T01:18:06.873Z,100710.22
2018-12-07T01:20:35.105Z,100706.75
2018-12-07T01:23:03.321Z,100692.86
2018-12-07T01:25:31.572Z,100704.33
2018-12-07T01:27:59.770Z,100700.50
2018-12-07T01:30:27.989Z,100705.56
2018-12-07T01:32:56.408Z,100696.33
2018-12-07T01:35:24.626Z,100693.69
2018-12-07T01:37:52.841Z,100694.13
2018-12-07T01:40:21.077Z,100698.30
2018-12-07T01:42:49.301Z,100707.97
2018-12-07T01:45:17.645Z,100701.64
2018-12-07T01:47:45.970Z,100696.80
2018-12-07T01:50:15.633Z,100701.59
2018-12-07T01:52:43.869Z,100702.52
2018-12-07T01:55:12.173Z,100708.19
2018-12-07T01:57:40.429Z,100698.95
2018-12-07T02:00:08.997Z,100710.92
2018-12-07T02:02:37.316Z,100695.53
2018-12-07T02:05:05.881Z,100696.66
2018-12-07T02:07:35.304Z,100683.22
2018-12-07T02:10:04.087Z,100687.73
2018-12-07T02:12:32.417Z,100688.92
2018-12-07T02:15:00.642Z,100695.44
2018-12-07T02:17:28.996Z,100688.97
2018-12-07T02:19:57.188Z,100688.57
2018-12-07T02:22:25.405Z,100692.00
2018-12-07T02:24:53.664Z,100694.06
2018-12-07T02:27:21.861Z,100689.66
2018-12-07T02:29:50.117Z,100688.04
2018-12-07T02:32:18.329Z,100682.20
2018-12-07T02:34:46.636Z,100678.72
2018-12-07T02:37:14.870Z,100688.48
2018-12-07T02:39:43.084Z,100686.81
2018-12-07T02:42:11.417Z,100684.75
2018-12-07T02:44:39.614Z,100680.92
2018-12-07T02:47:07.968Z,100673.41
2018-12-07T02:49:36.170Z,100679.34
2018-12-07T02:52:04.616Z,100684.70
2018-12-07T02:54:32.939Z,100679.30
2018-12-07T02:57:01.169Z,100679.20
2018-12-07T02:59:29.394Z,100680.52
2018-12-07T03:01:57.680Z,100686.81
2018-12-07T03:04:26.043Z,100681.41
2018-12-07T03:06:54.249Z,100678.27
2018-12-07T03:09:22.626Z,100680.52
2018-12-07T03:11:50.945Z,100675.13
2018-12-07T03:14:19.213Z,100680.09
2018-12-07T03:16:47.440Z,100680.52
2018-12-07T03:19:15.673Z,100679.83
2018-12-07T03:21:43.877Z,100685.72
2018-12-07T03:24:12.212Z,100676.70
2018-12-07T03:26:40.433Z,100673.84
2018-12-07T03:29:08.640Z,100677.33
2018-12-07T03:31:37.035Z,100676.80
2018-12-07T03:34:05.452Z,100676.66
2018-12-07T03:36:33.790Z,100676.63
2018-12-07T03:39:01.984Z,100672.45
2018-12-07T03:41:30.181Z,100684.51
2018-12-07T03:43:58.464Z,100669.39
2018-12-07T03:46:26.665Z,100671.90
2018-12-07T03:48:55.123Z,100668.20
2018-12-07T03:51:23.324Z,100665.08
2018-12-07T03:53:51.537Z,100671.68
2018-12-07T03:56:19.776Z,100656.04
2018-12-07T03:58:47.970Z,100657.31
2018-12-07T04:01:16.380Z,100655.20
2018-12-07T04:03:44.949Z,100655.78
2018-12-07T04:06:13.219Z,100650.72
2018-12-07T04:08:41.448Z,100645.45
2018-12-07T04:11:09.788Z,100633.50
2018-12-07T04:13:38.027Z,100630.60
2018-12-07T04:16:06.324Z,100628.11
2018-12-07T04:18:34.552Z,100628.84
2018-12-07T04:21:02.796Z,100627.13
2018-12-07T04:23:31.317Z,100632.19
2018-12-07T04:25:59.701Z,100632.19
2018-12-07T04:28:27.991Z,100636.55
2018-12-07T04:30:56.222Z,100639.04
2018-12-07T04:33:24.442Z,100632.27
2018-12-07T04:35:52.770Z,100637.19
2018-12-07T04:38:21.176Z,100631.39
2018-12-07T04:40:49.615Z,100627.39
2018-12-07T04:43:17.901Z,100629.55
2018-12-07T04:45:46.141Z,100639.78
2018-12-07T04:48:14.345Z,100639.98
2018-12-07T04:50:42.700Z,100637.28
2018-12-07T04:53:11.038Z,100638.79
2018-12-07T04:55:39.235Z,100631.14
2018-12-07T04:58:07.746Z,100617.52
2018-12-07T05:00:36.561Z,100619.68
2018-12-07T05:03:04.760Z,100622.31
2018-12-07T05:05:32.985Z,100617.05
2018-12-07T05:08:01.215Z,100615.31
2018-12-07T05:10:29.437Z,100615.22
2018-12-07T05:12:57.654Z,100607.19
2018-12-07T05:15:26.021Z,100606.80
2018-12-07T05:17:54.306Z,100605.38
2018-12-07T05:20:22.529Z,100603.27
2018-12-07T05:22:50.761Z,100599.49
2018-12-07T05:25:18.988Z,100594.48
2018-12-07T05:27:47.214Z,100590.63
2018-12-07T05:30:15.426Z,100586.27
2018-12-07T05:32:43.703Z,100588.13
2018-12-07T05:35:11.902Z,100588.03
2018-12-07T05:37:40.193Z,100581.47
2018-12-07T05:40:08.540Z,100578.58
2018-12-07T05:42:36.854Z,100581.61
2018-12-07T05:45:05.350Z,100577.44
2018-12-07T05:47:33.657Z,100571.06
2018-12-07T05:50:02.572Z,100565.64
2018-12-07T05:52:30.841Z,100564.26
2018-12-07T05:54:59.037Z,100572.30
2018-12-07T05:57:27.235Z,100572.69
2018-12-07T05:59:55.578Z,100565.05
2018-12-07T06:02:23.800Z,100563.14
2018-12-07T06:04:52.026Z,100562.98
2018-12-07T06:07:20.221Z,100560.69
2018-12-07T06:09:48.465Z,100560.64
2018-12-07T06:12:16.664Z,100556.72
2018-12-07T06:14:44.888Z,100552.80
2018-12-07T06:17:13.089Z,100553.98
2018-12-07T06:19:41.336Z,100552.62
2018-12-07T06:22:09.541Z,100553.01
2018-12-07T06:24:37.751Z,100547.12
2018-12-07T06:27:05.976Z,100544.18
2018-12-07T06:29:34.188Z,100540.66
2018-12-07T06:32:02.528Z,100534.33
2018-12-07T06:34:30.729Z,100541.44
2018-12-07T06:36:58.957Z,100536.14
2018-12-07T06:39:27.157Z,100529.77
2018-12-07T06:41:55.376Z,100526.53
2018-12-07T06:44:23.597Z,100521.24
2018-12-07T06:46:51.818Z,100523.98
2018-12-07T06:49:20.037Z,100511.63
2018-12-07T06:51:48.364Z,100507.86
2018-12-07T06:54:16.596Z,100497.61
2018-12-07T06:56:44.786Z,100495.84
2018-12-07T06:59:12.983Z,100490.51
2018-12-07T07:01:41.216Z,100491.69
2018-12-07T07:04:09.484Z,100499.42
2018-12-07T07:06:37.829Z,100494.72
2018-12-07T07:09:08.324Z,100489.19
2018-12-07T07:11:36.780Z,100478.98
2018-12-07T07:14:05.400Z,100479.33
2018-12-07T07:16:33.700Z,100466.98
2018-12-07T07:19:01.940Z,100460.66
2018-12-07T07:21:30.132Z,100464.48
2018-12-07T07:23:58.325Z,100456.44
2018-12-07T07:26:26.606Z,100448.25
2018-12-07T07:28:54.808Z,100446.48
2018-12-07T07:31:23.105Z,100444.28
2018-12-07T07:33:51.334Z,100442.61
2018-12-07T07:36:19.569Z,100441.73
2018-12-07T07:38:47.765Z,100436.09
2018-12-07T07:41:15.956Z,100428.78
2018-12-07T07:43:45.911Z,100422.41
2018-12-07T07:46:14.315Z,100418.19
2018-12-07T07:48:42.528Z,100417.20
2018-12-07T07:51:10.758Z,100408.12
2018-12-07T07:53:38.985Z,100405.08
2018-12-07T07:56:15.182Z,100405.52
2018-12-07T07:58:38.154Z,100398.16
2018-12-07T08:01:06.356Z,100399.67
2018-12-07T08:03:34.588Z,100389.08
2018-12-07T08:06:02.876Z,100389.59
2018-12-07T08:08:31.250Z,100389.48
2018-12-07T08:10:59.469Z,100379.28
2018-12-07T08:13:27.706Z,100381.22
2018-12-07T08:15:55.954Z,100376.89
2018-12-07T08:18:24.189Z,100376.84
2018-12-07T08:20:52.429Z,100369.91
2018-12-07T08:23:20.644Z,100376.54
2018-12-07T08:25:48.840Z,100372.49
2018-12-07T08:28:17.199Z,100366.16
2018-12-07T08:30:45.370Z,100359.95
2018-12-07T08:33:13.588Z,100352.06
2018-12-07T08:35:42.041Z,100346.08
2018-12-07T08:38:10.286Z,100334.36
2018-12-07T08:40:38.580Z,100338.84
2018-12-07T08:43:06.779Z,100332.84
2018-12-07T08:45:35.029Z,100323.47
2018-12-07T08:48:03.337Z,100318.07
2018-12-07T08:50:31.569Z,100321.45
2018-12-07T08:52:59.757Z,100317.06
2018-12-07T08:55:27.953Z,100308.51
2018-12-07T08:57:56.173Z,100301.88
2018-12-07T09:00:24.586Z,100296.27
2018-12-07T09:02:52.793Z,100292.89
2018-12-07T09:05:21.025Z,100291.87
2018-12-07T09:07:49.221Z,100291.05
2018-12-07T09:10:17.446Z,100279.05
2018-12-07T09:12:46.002Z,100282.43
2018-12-07T09:15:14.289Z,100281.83
2018-12-07T09:17:42.533Z,100271.42
2018-12-07T09:20:10.729Z,100270.16
2018-12-07T09:22:38.960Z,100264.66
2018-12-07T09:25:07.588Z,100264.09
2018-12-07T09:27:35.861Z,100261.89
2018-12-07T09:30:04.905Z,100258.92
2018-12-07T09:32:33.133Z,100251.55
2018-12-07T09:35:01.421Z,100240.18
2018-12-07T09:37:29.703Z,100241.71
2018-12-07T09:39:58.025Z,100234.17
2018-12-07T09:42:26.366Z,100229.61
2018-12-07T09:44:54.547Z,100214.09
2018-12-07T09:47:22.764Z,100214.86
2018-12-07T09:49:50.992Z,100211.03
2018-12-07T09:52:19.272Z,100211.48
2018-12-07T09:54:47.508Z,100206.37
2018-12-07T09:57:15.762Z,100196.92
2018-12-07T09:59:43.980Z,100197.62
2018-12-07T10:02:12.210Z,100186.26
2018-12-07T10:04:40.435Z,100181.91
2018-12-07T10:07:08.757Z,100182.81
2018-12-07T10:09:36.981Z,100174.31
2018-12-07T10:12:05.248Z,100172.98
2018-12-07T10:14:33.481Z,100166.97
2018-12-07T10:17:01.708Z,100164.38
2018-12-07T10:19:29.900Z,100155.77
2018-12-07T10:21:58.100Z,100153.59
2018-12-07T10:24:26.320Z,100144.45
2018-12-07T10:26:54.652Z,100141.83
2018-12-07T10:29:22.880Z,100129.13
2018-12-07T10:31:51.081Z,100130.34
2018-12-07T10:34:19.313Z,100122.23
2018-12-07T10:36:47.513Z,100106.97
2018-12-07T10:39:15.744Z,100108.48
2018-12-07T10:41:43.977Z,100098.41
2018-12-07T10:44:12.210Z,100097.27
2018-12-07T10:46:40.437Z,100087.16
2018-12-07T10:49:08.761Z,100081.29
2018-12-07T10:51:36.984Z,100079.49
2018-12-07T10:54:05.201Z,100070.93
2018-12-07T10:56:33.419Z,100060.95
2018-12-07T10:59:01.653Z,100057.19
2018-12-07T11:01:35.411Z,100047.42
2018-12-07T11:04:09.161Z,100047.22
2018-12-07T11:06:42.593Z,100039.52
2018-12-07T11:09:16.137Z,100042.08
2018-12-07T11:11:51.572Z,100039.90
2018-12-07T11:14:25.162Z,100025.84
2018-12-07T11:16:58.628Z,100017.88
2018-12-07T11:19:32.306Z,100015.11
2018-12-07T11:22:05.965Z,100005.79
2018-12-07T11:24:39.441Z,99995.50
2018-12-07T11:27:13.679Z,99981.45
2018-12-07T11:29:47.368Z,99986.35
2018-12-07T11:32:19.029Z,99975.30
2018-12-07T11:34:51.677Z,99971.99
2018-12-07T11:37:19.869Z,99953.28
2018-12-07T11:39:48.463Z,99956.90
2018-12-07T11:42:16.672Z,99950.80
2018-12-07T11:44:44.872Z,99945.26
2018-12-07T11:47:13.094Z,99935.19
2018-12-07T11:49:41.277Z,99928.56
2018-12-07T11:52:09.503Z,99923.91
2018-12-07T11:54:37.693Z,99924.66
2018-12-07T11:57:05.909Z,99915.03
2018-12-07T11:59:34.160Z,99910.45
2018-12-07T12:02:02.381Z,99904.66
2018-12-07T12:04:30.597Z,99898.94
2018-12-07T12:06:58.817Z,99900.30
2018-12-07T12:09:27.027Z,99887.97
2018-12-07T12:11:55.243Z,99887.22
2018-12-07T12:14:23.441Z,99880.31
2018-12-07T12:16:51.671Z,99868.31
2018-12-07T12:19:19.880Z,99869.07
2018-12-07T12:21:48.221Z,99858.81
2018-12-07T12:24:16.425Z,99849.83
2018-12-07T12:26:44.609Z,99848.72
2018-12-07T12:29:12.841Z,99845.48
2018-12-07T12:31:41.118Z,99838.50
2018-12-07T12:34:09.347Z,99844.70
2018-12-07T12:36:37.538Z,99840.61
2018-12-07T12:39:07.509Z,99830.77
2018-12-07T12:41:35.721Z,99830.39
2018-12-07T12:44:04.097Z,99815.88
2018-12-07T12:46:32.311Z,99811.80
2018-12-07T12:49:00.517Z,99798.02
2018-12-07T12:51:28.734Z,99798.95
2018-12-07T12:53:57.508Z,99802.22
2018-12-07T12:56:25.753Z,99790.62
2018-12-07T12:58:53.984Z,99786.27
2018-12-07T13:01:22.177Z,99772.14
2018-12-07T13:03:50.468Z,99768.91
2018-12-07T13:06:18.805Z,99769.55
2018-12-07T13:08:46.984Z,99765.72
2018-12-07T13:11:15.228Z,99752.70
2018-12-07T13:13:43.445Z,99749.87
2018-12-07T13:16:11.885Z,99751.34
2018-12-07T13:18:40.103Z,99737.00
2018-12-07T13:21:08.293Z,99722.59
2018-12-07T13:23:36.565Z,99726.94
2018-12-07T13:26:04.761Z,99726.64
2018-12-07T13:28:32.978Z,99713.50
2018-12-07T13:31:01.218Z,99700.81
2018-12-07T13:33:29.438Z,99698.56
2018-12-07T13:35:57.668Z,99682.04
2018-12-07T13:38:25.889Z,99690.52
2018-12-07T13:40:54.097Z,99684.59
2018-12-07T13:43:22.779Z,99675.28
2018-12-07T13:45:51.069Z,99674.91
2018-12-07T13:48:19.483Z,99665.97
2018-12-07T13:50:47.816Z,99664.92
2018-12-07T13:53:16.234Z,99650.73
2018-12-07T13:55:44.947Z,99655.46
2018-12-07T13:58:13.356Z,99645.02
2018-12-07T14:00:41.877Z,99646.22
2018-12-07T14:03:10.365Z,99641.64
2018-12-07T14:05:38.662Z,99627.22
2018-12-07T14:08:07.092Z,99631.27
2018-12-07T14:10:35.616Z,99616.20
2018-12-07T14:13:04.030Z,99620.31
2018-12-07T14:15:32.578Z,99613.11
2018-12-07T14:18:01.015Z,99608.38
2018-12-07T14:20:29.444Z,99605.09
2018-12-07T14:22:57.927Z,99598.02
2018-12-07T14:25:26.230Z,99592.83
2018-12-07T14:27:54.639Z,99586.31
2018-12-07T14:30:23.176Z,99588.86
2018-12-07T14:32:51.563Z,99585.78
2018-12-07T14:35:20.049Z,99575.20
2018-12-07T14:37:48.570Z,99571.73
2018-12-07T14:40:16.986Z,99569.50
2018-12-07T14:42:45.575Z,99554.19
2018-12-07T14:45:13.896Z,99551.63
2018-12-07T14:47:42.469Z,99551.46
2018-12-07T14:50:11.001Z,99546.22
2018-12-07T14:52:39.234Z,99551.01
2018-12-07T14:55:07.743Z,99539.84
2018-12-07T14:57:36.198Z,99533.62
2018-12-07T15:00:06.750Z,99533.24
2018-12-07T15:02:35.151Z,99528.72
2018-12-07T15:05:04.217Z,99530.98
2018-12-07T15:07:32.636Z,99521.55
2018-12-07T15:10:00.973Z,99511.70
2018-12-07T15:12:29.431Z,99506.02
2018-12-07T15:14:57.779Z,99498.73
2018-12-07T15:17:26.048Z,99498.97
2018-12-07T15:19:54.423Z,99493.25
2018-12-07T15:22:22.689Z,99488.23
2018-12-07T15:24:51.035Z,99486.34
2018-12-07T15:27:19.484Z,99478.48
2018-12-07T15:29:47.946Z,99471.56
2018-12-07T15:32:16.278Z,99468.03
2018-12-07T15:34:44.776Z,99466.83
2018-12-07T15:37:13.228Z,99457.73
2018-12-07T15:39:41.450Z,99459.76
2018-12-07T15:42:09.773Z,99457.66
2018-12-07T15:44:38.052Z,99449.02
2018-12-07T15:47:06.714Z,99446.14
2018-12-07T15:49:37.184Z,99447.05
2018-12-07T15:52:05.805Z,99436.25
2018-12-07T15:54:34.248Z,99428.80
2018-12-07T15:57:02.501Z,99430.90
2018-12-07T15:59:34.474Z,99429.55
2018-12-07T16:02:01.010Z,99421.27
2018-12-07T16:04:29.408Z,99422.26
2018-12-07T16:06:57.721Z,99408.59
2018-12-07T16:09:26.103Z,99412.58
2018-12-07T16:11:54.404Z,99408.92
2018-12-07T16:14:22.641Z,99402.00
2018-12-07T16:16:51.209Z,99401.95
2018-12-07T16:19:19.586Z,99395.98
2018-12-07T16:21:48.101Z,99384.50
2018-12-07T16:24:16.613Z,99375.20
2018-12-07T16:26:45.197Z,99374.00
2018-12-07T16:29:13.556Z,99378.38
2018-12-07T16:31:42.027Z,99356.76
2018-12-07T16:34:10.457Z,99363.51
2018-12-07T16:36:38.793Z,99358.44
2018-12-07T16:39:08.391Z,99351.41
2018-12-07T16:41:36.973Z,99336.80
2018-12-07T16:44:05.425Z,99327.77
2018-12-07T16:46:33.790Z,99333.95
2018-12-07T16:49:02.406Z,99325.84
2018-12-07T16:51:30.849Z,99319.38
2018-12-07T16:53:59.170Z,99311.36
2018-12-07T16:56:27.845Z,99307.16
2018-12-07T16:58:56.271Z,99309.17
2018-12-07T17:01:24.692Z,99303.61
2018-12-07T17:03:53.381Z,99298.80
2018-12-07T17:06:21.823Z,99295.42
2018-12-07T17:08:50.335Z,99294.06
2018-12-07T17:11:18.996Z,99282.00
2018-12-07T17:13:47.609Z,99282.17
2018-12-07T17:16:15.934Z,99282.83
2018-12-07T17:18:44.167Z,99275.26
2018-12-07T17:21:12.492Z,99259.92
2018-12-07T17:23:41.103Z,99265.02
2018-12-07T17:26:09.397Z,99253.34
2018-12-07T17:28:37.669Z,99250.25
2018-12-07T17:31:05.865Z,99244.61
2018-12-07T17:33:34.165Z,99237.66
2018-12-07T17:36:02.464Z,99234.03
2018-12-07T17:38:30.752Z,99237.03
2018-12-07T17:40:59.143Z,99225.47
2018-12-07T17:43:27.552Z,99226.63
2018-12-07T17:45:56.082Z,99227.45
2018-12-07T17:48:24.683Z,99218.70
2018-12-07T17:50:53.139Z,99228.08
2018-12-07T17:53:21.608Z,99205.83
2018-12-07T17:55:50.041Z,99207.75
2018-12-07T18:01:02.004Z,99198.71
2018-12-07T18:03:30.445Z,99194.80
2018-12-07T18:05:58.844Z,99199.36
2018-12-07T18:08:27.147Z,99199.19
2018-12-07T18:10:55.725Z,99190.17
2018-12-07T18:13:24.096Z,99188.90
2018-12-07T18:15:52.369Z,99179.41
2018-12-07T18:18:20.833Z,99184.05
2018-12-07T18:20:49.324Z,99171.02
2018-12-07T18:23:17.645Z,99173.28
2018-12-07T18:25:46.017Z,99173.03
2018-12-07T18:28:14.437Z,99162.73
2018-12-07T18:30:42.732Z,99162.00
2018-12-07T18:33:11.138Z,99159.08
2018-12-07T18:35:39.548Z,99150.41
2018-12-07T18:38:08.537Z,99154.52
2018-12-07T18:40:37.075Z,99140.03
2018-12-07T18:43:05.634Z,99140.69
2018-12-07T18:45:34.188Z,99128.19
2018-12-07T18:48:02.654Z,99129.38
2018-12-07T18:50:31.084Z,99123.91
2018-12-07T18:53:00.133Z,99121.81
2018-12-07T18:55:28.428Z,99122.45
2018-12-07T18:57:56.729Z,99112.33
2018-12-07T19:00:25.320Z,99107.87
2018-12-07T19:02:53.749Z,99096.39
2018-12-07T19:05:22.327Z,99094.20
2018-12-07T19:07:50.880Z,99093.47
2018-12-07T19:10:19.438Z,99092.11
2018-12-07T19:12:47.808Z,99087.37
2018-12-07T19:15:16.178Z,99085.00
2018-12-07T19:17:44.547Z,99079.62
2018-12-07T19:20:13.089Z,99083.72
2018-12-07T19:22:41.405Z,99069.78
2018-12-07T19:25:09.723Z,99076.80
2018-12-07T19:27:37.993Z,99073.88
2018-12-07T19:30:14.609Z,99070.86
2018-12-07T19:32:40.386Z,99076.31
2018-12-07T19:35:08.764Z,99068.86
2018-12-07T19:37:37.293Z,99075.41
2018-12-07T19:40:06.538Z,99074.99
2018-12-07T19:42:34.977Z,99075.36
2018-12-07T19:45:03.674Z,99070.44
2018-12-07T19:47:32.138Z,99077.72
2018-12-07T19:50:00.443Z,99082.80
2018-12-07T19:52:28.931Z,99090.66
2018-12-07T19:54:57.574Z,99087.35
2018-12-07T19:57:25.977Z,99096.70
2018-12-07T19:59:54.501Z,99103.30
2018-12-07T20:02:22.764Z,99111.11
2018-12-07T20:04:51.110Z,99123.83
2018-12-07T20:07:19.501Z,99138.48
2018-12-07T20:09:48.040Z,99140.92
2018-12-07T20:12:16.307Z,99147.05
2018-12-07T20:14:44.757Z,99158.91
2018-12-07T20:17:13.118Z,99157.05
2018-12-07T20:19:41.324Z,99166.39
2018-12-07T20:22:09.706Z,99171.50
2018-12-07T20:24:38.166Z,99182.86
2018-12-07T20:27:06.710Z,99176.72
2018-12-07T20:29:35.343Z,99188.30
2018-12-07T20:32:03.885Z,99190.15
2018-12-07T20:34:32.192Z,99195.71
2018-12-07T20:37:00.588Z,99209.30
2018-12-07T20:39:29.493Z,99211.53
2018-12-07T20:41:57.963Z,99221.97
2018-12-07T20:44:26.337Z,99227.80
2018-12-07T20:46:54.911Z,99234.77
2018-12-07T20:49:23.998Z,99238.45
2018-12-07T20:51:52.615Z,99247.20
2018-12-07T20:54:21.040Z,99251.22
2018-12-07T20:56:49.419Z,99261.06
2018-12-07T20:59:17.805Z,99268.95
2018-12-07T21:01:51.616Z,99273.84
2018-12-07T21:04:38.286Z,99275.13
2018-12-07T21:08:14.533Z,99284.78
2018-12-07T21:11:19.387Z,99281.55
2018-12-07T21:14:39.984Z,99288.69
2018-12-07T21:17:15.789Z,99296.05
2018-12-07T21:19:48.275Z,99313.56
2018-12-07T21:22:16.938Z,99310.39
2018-12-07T21:24:45.309Z,99316.36
2018-12-07T21:27:13.854Z,99317.38
2018-12-07T21:29:42.291Z,99322.39
2018-12-07T21:32:16.260Z,99321.24
2018-12-07T21:34:55.318Z,99329.56
2018-12-07T21:37:23.957Z,99336.67
2018-12-07T21:40:03.644Z,99324.67
2018-12-07T21:42:31.918Z,99340.28
2018-12-07T21:45:00.112Z,99336.73
2018-12-07T21:47:58.713Z,99344.09
2018-12-07T21:50:27.104Z,99346.06
2018-12-07T21:52:55.447Z,99348.91
2018-12-07T21:55:23.997Z,99348.09
2018-12-07T21:57:52.451Z,99352.09
2018-12-07T22:00:20.828Z,99350.83
2018-12-07T22:02:49.306Z,99351.45
2018-12-07T22:05:17.797Z,99360.28
2018-12-07T22:07:46.377Z,99368.97
2018-12-07T22:10:14.943Z,99376.34
2018-12-07T22:12:43.317Z,99371.50
2018-12-07T22:15:11.621Z,99371.00
2018-12-07T22:17:40.378Z,99375.31
2018-12-07T22:20:08.751Z,99380.84
2018-12-07T22:22:37.000Z,99379.70
2018-12-07T22:25:05.497Z,99371.40
2018-12-07T22:27:33.866Z,99376.59
2018-12-07T22:30:02.260Z,99386.86
2018-12-07T22:32:30.739Z,99383.27
2018-12-07T22:34:59.207Z,99373.92
2018-12-07T22:37:27.910Z,99378.23
2018-12-07T22:39:56.427Z,99384.89
2018-12-07T22:42:24.800Z,99393.84
2018-12-07T22:44:53.163Z,99412.31
2018-12-07T22:47:21.764Z,99412.31
2018-12-07T22:49:50.076Z,99415.08
2018-12-07T22:52:18.308Z,99403.66
2018-12-07T22:54:46.525Z,99407.80
2018-12-07T22:57:14.761Z,99409.23
2018-12-07T22:59:42.978Z,99413.93
2018-12-07T23:02:11.804Z,99415.52
2018-12-07T23:04:40.065Z,99415.70
2018-12-07T23:07:08.352Z,99420.78
2018-12-07T23:09:36.962Z,99428.50
2018-12-07T23:12:05.396Z,99423.43
2018-12-07T23:14:33.837Z,99418.59
2018-12-07T23:17:02.055Z,99418.74
2018-12-07T23:19:30.292Z,99425.20
2018-12-07T23:21:58.501Z,99429.72
2018-12-07T23:24:26.698Z,99434.84
2018-12-07T23:26:54.948Z,99434.61
2018-12-07T23:29:23.714Z,99435.62
2018-12-07T23:31:52.048Z,99438.36
2018-12-07T23:34:20.321Z,99434.23
2018-12-07T23:36:48.517Z,99438.66
2018-12-07T23:39:16.881Z,99437.71
2018-12-07T23:41:45.124Z,99436.00
2018-12-07T23:44:13.442Z,99428.33
2018-12-07T23:46:41.660Z,99438.09
2018-12-07T23:49:09.901Z,99439.42
2018-12-07T23:51:38.112Z,99449.69
2018-12-07T23:54:06.374Z,99455.53
2018-12-07T23:56:34.701Z,99453.11
2018-12-07T23:59:03.001Z,99454.16
